createdAt,value
2023-12-11T00:00:12.371Z,5.57
2023-12-11T00:02:38.912Z,5.50
2023-12-11T00:05:05.754Z,5.10
2023-12-11T00:07:32.443Z,4.43
2023-12-11T00:09:59.038Z,5.60
2023-12-11T00:12:25.510Z,5.23
2023-12-11T00:14:52.020Z,5.40
2023-12-11T00:17:18.500Z,6.07
2023-12-11T00:19:44.973Z,5.67
2023-12-11T00:22:11.525Z,7.70
2023-12-11T00:24:38.081Z,7.37
2023-12-11T00:27:04.684Z,6.57
2023-12-11T00:29:31.256Z,6.07
2023-12-11T00:31:57.760Z,6.40
2023-12-11T00:34:24.364Z,5.80
2023-12-11T00:36:50.976Z,5.90
2023-12-11T00:39:17.566Z,5.50
2023-12-11T00:41:47.204Z,5.37
2023-12-11T00:44:13.673Z,5.87
2023-12-11T00:46:40.201Z,5.00
2023-12-11T00:49:06.764Z,4.93
2023-12-11T00:51:33.370Z,5.07
2023-12-11T00:53:59.864Z,5.43
2023-12-11T00:56:26.562Z,4.73
2023-12-11T00:58:53.042Z,5.80
2023-12-11T01:01:19.594Z,6.80
2023-12-11T01:03:46.424Z,6.00
2023-12-11T01:06:13.789Z,8.07
2023-12-11T01:08:40.957Z,6.70
2023-12-11T01:11:08.216Z,6.43
2023-12-11T01:13:34.769Z,6.33
2023-12-11T01:16:01.418Z,7.30
2023-12-11T01:18:28.099Z,7.27
2023-12-11T01:20:54.722Z,8.70
2023-12-11T01:23:21.246Z,10.23
2023-12-11T01:25:47.780Z,9.20
2023-12-11T01:28:14.409Z,7.20
2023-12-11T01:30:41.088Z,6.20
2023-12-11T01:33:07.782Z,6.00
2023-12-11T01:35:34.346Z,6.60
2023-12-11T01:38:01.084Z,6.27
2023-12-11T01:40:27.592Z,6.77
2023-12-11T01:43:04.279Z,6.00
2023-12-11T01:45:37.401Z,6.10
2023-12-11T01:48:04.369Z,5.67
2023-12-11T01:50:30.931Z,5.90
2023-12-11T01:52:57.383Z,5.57
2023-12-11T01:55:24.202Z,5.47
2023-12-11T01:57:50.676Z,5.63
2023-12-11T02:00:17.549Z,5.27
2023-12-11T02:02:44.357Z,8.13
2023-12-11T02:05:10.865Z,6.57
2023-12-11T02:07:39.196Z,6.90
2023-12-11T02:10:07.228Z,6.97
2023-12-11T02:12:33.759Z,7.77
2023-12-11T02:15:00.402Z,7.47
2023-12-11T02:17:26.925Z,8.40
2023-12-11T02:19:53.921Z,7.30
2023-12-11T02:22:20.754Z,7.53
2023-12-11T02:24:50.478Z,7.50
2023-12-11T02:27:17.289Z,7.40
2023-12-11T02:29:43.777Z,6.70
2023-12-11T02:32:10.312Z,6.43
2023-12-11T02:34:37.214Z,6.40
2023-12-11T02:37:03.996Z,7.90
2023-12-11T02:39:30.536Z,7.57
2023-12-11T02:41:57.005Z,7.53
2023-12-11T02:44:23.526Z,7.00
2023-12-11T02:46:50.088Z,8.33
2023-12-11T02:49:16.698Z,7.80
2023-12-11T02:51:43.239Z,6.47
2023-12-11T02:54:09.720Z,7.67
2023-12-11T02:56:39.229Z,8.23
2023-12-11T02:59:05.712Z,6.33
2023-12-11T03:01:32.227Z,7.80
2023-12-11T03:03:58.824Z,7.20
2023-12-11T03:06:25.720Z,6.37
2023-12-11T03:08:52.253Z,6.73
2023-12-11T03:11:18.714Z,7.37
2023-12-11T03:13:45.168Z,6.23
2023-12-11T03:16:15.061Z,5.80
2023-12-11T03:18:42.065Z,4.93
2023-12-11T03:21:08.743Z,6.57
2023-12-11T03:23:35.209Z,6.00
2023-12-11T03:26:01.731Z,5.87
2023-12-11T03:28:28.214Z,5.10
2023-12-11T03:30:55.010Z,5.00
2023-12-11T03:33:21.526Z,6.20
2023-12-11T03:35:48.045Z,4.70
2023-12-11T03:38:14.586Z,4.30
2023-12-11T03:40:41.091Z,8.13
2023-12-11T03:43:07.570Z,5.30
2023-12-11T03:45:34.202Z,5.30
2023-12-11T03:48:00.710Z,5.13
2023-12-11T03:50:27.277Z,6.23
2023-12-11T03:52:53.797Z,5.50
2023-12-11T03:55:20.305Z,6.13
2023-12-11T03:57:46.803Z,5.00
2023-12-11T04:00:13.929Z,4.77
2023-12-11T04:02:40.570Z,4.97
2023-12-11T04:05:07.412Z,4.50
2023-12-11T04:07:33.932Z,4.57
2023-12-11T04:10:00.504Z,5.90
2023-12-11T04:12:27.044Z,6.30
2023-12-11T04:14:53.519Z,6.70
2023-12-11T04:17:21.092Z,6.47
2023-12-11T04:19:47.638Z,8.67
2023-12-11T04:22:14.371Z,7.77
2023-12-11T04:24:40.932Z,5.10
2023-12-11T04:27:07.430Z,5.57
2023-12-11T04:29:33.984Z,6.33
2023-12-11T04:32:00.424Z,4.90
2023-12-11T04:34:27.027Z,5.33
2023-12-11T04:36:53.546Z,4.83
2023-12-11T04:39:20.089Z,5.80
2023-12-11T04:41:46.568Z,5.13
2023-12-11T04:44:13.069Z,4.53
2023-12-11T04:46:39.553Z,5.50
2023-12-11T04:49:06.113Z,5.70
2023-12-11T04:51:32.649Z,5.10
2023-12-11T04:53:59.178Z,5.80
2023-12-11T04:56:25.688Z,6.10
2023-12-11T04:58:52.167Z,5.17
2023-12-11T05:01:18.800Z,5.03
2023-12-11T05:03:45.400Z,5.00
2023-12-11T05:06:11.887Z,6.40
2023-12-11T05:08:38.407Z,6.07
2023-12-11T05:11:04.978Z,5.70
2023-12-11T05:13:31.429Z,9.73
2023-12-11T05:15:57.909Z,7.13
2023-12-11T05:18:24.483Z,7.20
2023-12-11T05:20:50.982Z,6.10
2023-12-11T05:23:17.517Z,5.40
2023-12-11T05:25:44.037Z,5.00
2023-12-11T05:28:10.993Z,4.80
2023-12-11T05:30:37.638Z,5.03
2023-12-11T05:33:04.292Z,4.93
2023-12-11T05:35:30.873Z,8.27
2023-12-11T05:37:59.603Z,9.80
2023-12-11T05:40:26.540Z,8.67
2023-12-11T05:42:53.104Z,5.87
2023-12-11T05:45:19.668Z,7.73
2023-12-11T05:47:46.229Z,7.27
2023-12-11T05:50:12.992Z,6.20
2023-12-11T05:52:39.617Z,5.23
2023-12-11T05:55:06.397Z,4.57
2023-12-11T05:57:33.092Z,3.97
2023-12-11T05:59:59.787Z,7.17
2023-12-11T06:02:26.396Z,5.47
2023-12-11T06:04:53.042Z,4.63
2023-12-11T06:07:19.647Z,5.67
2023-12-11T06:09:46.200Z,5.73
2023-12-11T06:12:12.724Z,6.90
2023-12-11T06:14:44.544Z,6.23
2023-12-11T06:17:12.761Z,6.57
2023-12-11T06:19:42.466Z,6.50
2023-12-11T06:22:09.236Z,5.50
2023-12-11T06:24:35.778Z,5.00
2023-12-11T06:27:02.350Z,4.43
2023-12-11T06:29:28.852Z,5.20
2023-12-11T06:31:55.329Z,4.27
2023-12-11T06:34:22.026Z,4.20
2023-12-11T06:36:48.578Z,4.40
2023-12-11T06:39:16.010Z,4.50
2023-12-11T06:41:42.551Z,6.50
2023-12-11T06:44:08.990Z,5.83
2023-12-11T06:46:35.513Z,4.33
2023-12-11T06:49:02.103Z,3.87
2023-12-11T06:51:28.781Z,4.50
2023-12-11T06:53:55.328Z,3.93
2023-12-11T06:56:21.788Z,4.40
2023-12-11T06:58:48.249Z,3.67
2023-12-11T07:01:15.274Z,4.60
2023-12-11T07:03:42.014Z,3.80
2023-12-11T07:06:09.882Z,4.10
2023-12-11T07:08:37.232Z,4.20
2023-12-11T07:11:04.244Z,4.30
2023-12-11T07:13:30.795Z,3.63
2023-12-11T07:15:57.393Z,3.87
2023-12-11T07:18:23.979Z,4.10
2023-12-11T07:20:50.486Z,4.63
2023-12-11T07:23:16.992Z,4.57
2023-12-11T07:25:43.606Z,4.30
2023-12-11T07:28:11.140Z,3.90
2023-12-11T07:30:37.707Z,4.20
2023-12-11T07:33:04.334Z,4.47
2023-12-11T07:35:30.832Z,3.87
2023-12-11T07:37:57.325Z,3.70
2023-12-11T07:40:23.982Z,4.13
2023-12-11T07:42:50.495Z,8.33
2023-12-11T07:45:17.011Z,16.17
2023-12-11T07:47:43.558Z,10.80
2023-12-11T07:50:10.434Z,8.60
2023-12-11T07:52:36.979Z,8.43
2023-12-11T07:55:03.750Z,6.53
2023-12-11T07:57:30.601Z,7.00
2023-12-11T07:59:57.345Z,7.93
2023-12-11T08:02:23.838Z,7.30
2023-12-11T08:04:50.522Z,8.00
2023-12-11T08:07:17.425Z,7.23
2023-12-11T08:09:44.114Z,8.00
2023-12-11T08:12:10.678Z,8.83
2023-12-11T08:14:39.465Z,7.20
2023-12-11T08:17:06.357Z,13.00
2023-12-11T08:19:33.563Z,13.40
2023-12-11T08:22:00.838Z,14.67
2023-12-11T08:24:27.358Z,18.80
2023-12-11T08:26:53.842Z,16.53
2023-12-11T08:29:21.192Z,17.63
2023-12-11T08:31:47.682Z,18.40
2023-12-11T08:34:14.246Z,18.20
2023-12-11T08:36:40.792Z,19.70
2023-12-11T08:39:07.282Z,19.77
2023-12-11T08:41:35.370Z,17.73
2023-12-11T08:44:01.842Z,19.40
2023-12-11T08:46:28.340Z,18.87
2023-12-11T08:48:54.977Z,19.50
2023-12-11T08:51:21.561Z,18.60
2023-12-11T08:53:48.090Z,19.57
2023-12-11T08:56:14.935Z,19.00
2023-12-11T08:58:41.386Z,16.70
2023-12-11T09:01:08.014Z,17.70
2023-12-11T09:03:34.560Z,16.97
2023-12-11T09:06:01.118Z,16.60
2023-12-11T09:08:27.663Z,15.00
2023-12-11T09:10:54.149Z,16.90
2023-12-11T09:13:20.684Z,16.63
2023-12-11T09:15:47.301Z,15.90
2023-12-11T09:18:14.076Z,14.47
2023-12-11T09:20:40.759Z,14.40
2023-12-11T09:23:07.245Z,14.17
2023-12-11T09:25:36.688Z,15.40
2023-12-11T09:28:03.581Z,13.00
2023-12-11T09:30:30.155Z,13.03
2023-12-11T09:32:56.878Z,12.60
2023-12-11T09:35:23.653Z,12.80
2023-12-11T09:37:51.885Z,13.33
2023-12-11T09:40:19.842Z,13.40
2023-12-11T09:42:47.810Z,17.60
2023-12-11T09:45:14.400Z,14.00
2023-12-11T09:47:45.422Z,14.07
2023-12-11T09:50:12.159Z,11.47
2023-12-11T09:52:41.811Z,11.63
2023-12-11T09:55:09.035Z,11.40
2023-12-11T09:57:36.750Z,9.70
2023-12-11T10:00:05.741Z,14.87
2023-12-11T10:02:33.544Z,11.03
2023-12-11T10:05:05.147Z,9.80
2023-12-11T10:07:32.867Z,11.37
2023-12-11T10:10:00.827Z,9.03
2023-12-11T10:12:39.945Z,8.40
2023-12-11T10:15:07.202Z,9.40
2023-12-11T10:17:34.102Z,8.00
2023-12-11T10:20:00.978Z,7.33
2023-12-11T10:22:33.618Z,7.33
2023-12-11T10:25:00.175Z,7.63
2023-12-11T10:27:27.158Z,8.60
2023-12-11T10:30:10.760Z,9.00
2023-12-11T10:32:37.357Z,7.43
2023-12-11T10:35:04.244Z,7.77
2023-12-11T10:37:31.424Z,7.60
2023-12-11T10:39:59.402Z,8.30
2023-12-11T10:42:26.490Z,9.00
2023-12-11T10:44:55.322Z,8.00
2023-12-11T10:47:22.489Z,7.40
2023-12-11T10:49:49.748Z,7.17
2023-12-11T10:52:16.724Z,7.87
2023-12-11T10:54:43.736Z,8.17
2023-12-11T10:57:15.837Z,6.90
2023-12-11T10:59:42.652Z,7.83
2023-12-11T11:02:10.173Z,7.53
2023-12-11T11:04:40.560Z,6.67
2023-12-11T11:07:18.511Z,8.17
2023-12-11T11:09:47.775Z,7.33
2023-12-11T11:12:36.767Z,6.80
2023-12-11T11:15:03.365Z,7.50
2023-12-11T11:17:58.198Z,6.77
2023-12-11T11:20:24.738Z,6.73
2023-12-11T11:22:51.431Z,6.70
2023-12-11T11:25:30.127Z,7.50
2023-12-11T11:27:56.765Z,6.93
2023-12-11T11:30:45.154Z,5.37
2023-12-11T11:33:11.800Z,6.83
2023-12-11T11:35:44.827Z,6.00
2023-12-11T11:38:11.396Z,6.33
2023-12-11T11:40:38.646Z,6.63
2023-12-11T11:43:08.933Z,7.43
2023-12-11T11:45:35.799Z,6.57
2023-12-11T11:48:03.464Z,6.07
2023-12-11T11:50:31.041Z,5.40
2023-12-11T11:53:07.934Z,6.20
2023-12-11T11:55:34.736Z,6.70
2023-12-11T11:58:11.492Z,6.60
2023-12-11T12:00:38.376Z,6.20
2023-12-11T12:03:05.032Z,5.40
2023-12-11T12:05:32.289Z,5.57
2023-12-11T12:07:59.173Z,6.37
2023-12-11T12:10:25.824Z,5.90
2023-12-11T12:13:01.280Z,5.37
2023-12-11T12:15:28.632Z,5.57
2023-12-11T12:18:06.079Z,5.63
2023-12-11T12:20:32.673Z,6.27
2023-12-11T12:23:03.635Z,6.43
2023-12-11T12:25:31.603Z,6.13
2023-12-11T12:28:06.892Z,6.00
2023-12-11T12:30:34.351Z,6.43
2023-12-11T12:33:02.284Z,5.70
2023-12-11T12:35:29.490Z,6.40
2023-12-11T12:37:56.776Z,6.53
2023-12-11T12:40:23.825Z,6.10
2023-12-11T12:42:50.596Z,5.70
2023-12-11T12:45:35.483Z,5.67
2023-12-11T12:48:03.940Z,6.00
2023-12-11T12:50:30.679Z,6.20
2023-12-11T12:53:10.641Z,5.87
2023-12-11T12:55:37.697Z,5.90
2023-12-11T12:58:04.833Z,4.53
2023-12-11T13:00:31.482Z,3.80
2023-12-11T13:03:00.951Z,5.77
2023-12-11T13:05:43.478Z,4.40
2023-12-11T13:08:10.140Z,6.40
2023-12-11T13:10:37.314Z,13.10
2023-12-11T13:13:10.178Z,15.20
2023-12-11T13:15:36.677Z,14.70
2023-12-11T13:18:03.292Z,16.03
2023-12-11T13:20:29.960Z,9.60
2023-12-11T13:22:56.676Z,11.20
2023-12-11T13:25:23.180Z,12.30
2023-12-11T13:27:49.728Z,10.80
2023-12-11T13:30:16.631Z,10.37
2023-12-11T13:32:43.257Z,11.93
2023-12-11T13:35:10.614Z,8.70
2023-12-11T13:37:37.175Z,9.53
2023-12-11T13:40:05.909Z,9.43
2023-12-11T13:42:32.375Z,9.67
2023-12-11T13:44:58.856Z,10.00
2023-12-11T13:47:25.633Z,10.17
2023-12-11T13:49:52.686Z,7.90
2023-12-11T13:52:19.373Z,9.77
2023-12-11T13:54:45.910Z,11.17
2023-12-11T13:57:12.436Z,9.10
2023-12-11T13:59:38.943Z,9.40
2023-12-11T14:02:05.868Z,10.80
2023-12-11T14:04:32.475Z,7.53
2023-12-11T14:06:59.660Z,5.87
2023-12-11T14:09:26.284Z,7.13
2023-12-11T14:11:55.641Z,6.80
2023-12-11T14:14:22.163Z,10.70
2023-12-11T14:16:48.735Z,11.60
2023-12-11T14:19:15.328Z,11.50
2023-12-11T14:21:42.414Z,12.77
2023-12-11T14:24:08.997Z,11.30
2023-12-11T14:26:43.580Z,11.20
2023-12-11T14:29:14.381Z,11.60
2023-12-11T14:31:41.324Z,13.80
2023-12-11T14:34:07.888Z,16.73
2023-12-11T14:36:34.463Z,15.47
2023-12-11T14:39:00.913Z,14.20
2023-12-11T14:41:27.375Z,13.80
2023-12-11T14:43:53.862Z,13.50
2023-12-11T14:46:20.348Z,15.63
2023-12-11T14:48:46.936Z,14.40
2023-12-11T14:51:13.455Z,14.20
2023-12-11T14:53:39.949Z,10.57
2023-12-11T14:56:07.041Z,10.90
2023-12-11T14:58:33.675Z,11.77
2023-12-11T15:01:00.295Z,12.80
2023-12-11T15:03:26.869Z,11.97
2023-12-11T15:05:53.378Z,13.13
2023-12-11T15:08:20.039Z,12.17
2023-12-11T15:10:46.763Z,12.30
2023-12-11T15:13:13.539Z,14.63
2023-12-11T15:15:40.290Z,12.77
2023-12-11T15:18:06.933Z,14.27
2023-12-11T15:20:33.396Z,16.30
2023-12-11T15:22:59.838Z,15.27
2023-12-11T15:25:28.781Z,18.03
2023-12-11T15:27:55.495Z,16.80
2023-12-11T15:30:21.943Z,14.30
2023-12-11T15:32:49.298Z,15.83
2023-12-11T15:35:17.225Z,12.70
2023-12-11T15:37:43.688Z,12.17
2023-12-11T15:40:10.679Z,12.53
2023-12-11T15:42:37.168Z,11.97
2023-12-11T15:45:04.037Z,15.60
2023-12-11T15:47:32.140Z,14.60
2023-12-11T15:50:17.062Z,10.63
2023-12-11T15:52:43.680Z,11.13
2023-12-11T15:55:10.209Z,8.90
2023-12-11T15:57:36.796Z,12.00
2023-12-11T16:00:03.684Z,10.73
2023-12-11T16:02:30.346Z,10.23
2023-12-11T16:04:56.991Z,14.43
2023-12-11T16:07:23.556Z,12.43
2023-12-11T16:09:50.096Z,13.00
2023-12-11T16:12:16.610Z,11.77
2023-12-11T16:14:43.071Z,12.20
2023-12-11T16:17:09.529Z,15.30
2023-12-11T16:19:36.069Z,22.70
2023-12-11T16:22:02.638Z,22.27
2023-12-11T16:24:29.129Z,19.27
2023-12-11T16:26:55.650Z,18.33
2023-12-11T16:29:22.124Z,17.93
2023-12-11T16:31:53.369Z,16.73
2023-12-11T16:34:20.196Z,12.57
2023-12-11T16:36:50.130Z,13.50
2023-12-11T16:39:17.066Z,15.60
2023-12-11T16:41:43.628Z,12.83
2023-12-11T16:44:10.141Z,13.90
2023-12-11T16:46:36.662Z,14.20
2023-12-11T16:49:03.186Z,12.60
2023-12-11T16:51:29.749Z,11.57
2023-12-11T16:53:56.711Z,13.33
2023-12-11T16:56:23.212Z,12.90
2023-12-11T16:58:49.725Z,13.70
2023-12-11T17:01:16.490Z,16.10
2023-12-11T17:03:43.279Z,13.10
2023-12-11T17:06:19.940Z,13.40
2023-12-11T17:08:46.554Z,14.97
2023-12-11T17:11:13.077Z,14.67
2023-12-11T17:13:40.093Z,17.37
2023-12-11T17:16:07.151Z,17.20
2023-12-11T17:18:33.833Z,18.23
2023-12-11T17:21:01.251Z,17.50
2023-12-11T17:23:28.776Z,16.03
2023-12-11T17:25:55.234Z,16.70
2023-12-11T17:28:21.722Z,19.10
2023-12-11T17:30:48.235Z,19.53
2023-12-11T17:33:14.746Z,13.77
2023-12-11T17:35:41.208Z,13.33
2023-12-11T17:38:07.717Z,11.70
2023-12-11T17:40:34.226Z,15.10
2023-12-11T17:43:00.777Z,14.90
2023-12-11T17:45:27.315Z,12.80
2023-12-11T17:47:53.804Z,13.77
2023-12-11T17:50:20.311Z,12.60
2023-12-11T17:52:46.821Z,12.67
2023-12-11T17:55:13.361Z,12.90
2023-12-11T17:57:39.907Z,14.27
2023-12-11T18:00:06.890Z,13.07
2023-12-11T18:02:33.353Z,13.10
2023-12-11T18:05:00.056Z,15.47
2023-12-11T18:07:26.736Z,14.97
2023-12-11T18:09:53.269Z,16.10
2023-12-11T18:12:19.825Z,15.43
2023-12-11T18:14:46.363Z,14.60
2023-12-11T18:17:13.107Z,11.83
2023-12-11T18:19:39.776Z,11.90
2023-12-11T18:22:07.887Z,11.33
2023-12-11T18:24:34.649Z,9.90
2023-12-11T18:27:01.238Z,9.40
2023-12-11T18:29:27.956Z,9.80
2023-12-11T18:31:54.452Z,9.80
2023-12-11T18:34:21.028Z,8.47
2023-12-11T18:36:47.590Z,7.53
2023-12-11T18:39:14.237Z,7.13
2023-12-11T18:41:41.079Z,7.67
2023-12-11T18:44:07.786Z,7.23
2023-12-11T18:46:34.300Z,7.53
2023-12-11T18:49:01.006Z,6.80
2023-12-11T18:51:28.802Z,7.93
2023-12-11T18:53:55.377Z,9.23
2023-12-11T18:56:22.684Z,9.43
2023-12-11T18:58:49.508Z,7.90
2023-12-11T19:01:16.799Z,7.20
2023-12-11T19:03:43.514Z,8.50
2023-12-11T19:06:10.232Z,7.20
2023-12-11T19:08:37.058Z,8.83
2023-12-11T19:11:04.772Z,7.33
2023-12-11T19:13:31.705Z,6.07
2023-12-11T19:15:58.252Z,7.40
2023-12-11T19:18:26.201Z,7.63
2023-12-11T19:20:52.869Z,7.70
2023-12-11T19:23:19.346Z,8.57
2023-12-11T19:25:45.789Z,11.33
2023-12-11T19:28:12.293Z,10.53
2023-12-11T19:30:38.837Z,9.77
2023-12-11T19:33:06.430Z,8.97
2023-12-11T19:35:33.285Z,8.67
2023-12-11T19:37:59.817Z,9.30
2023-12-11T19:40:26.304Z,9.17
2023-12-11T19:42:52.856Z,9.80
2023-12-11T19:45:19.357Z,8.40
2023-12-11T19:47:46.087Z,7.93
2023-12-11T19:50:12.726Z,8.70
2023-12-11T19:52:39.260Z,8.97
2023-12-11T19:55:16.846Z,8.90
2023-12-11T19:57:43.359Z,8.30
2023-12-11T20:00:10.500Z,9.23
2023-12-11T20:02:36.993Z,9.03
2023-12-11T20:05:03.763Z,9.90
2023-12-11T20:07:30.679Z,9.10
2023-12-11T20:09:57.809Z,9.70
2023-12-11T20:12:24.327Z,8.17
2023-12-11T20:14:50.809Z,8.53
2023-12-11T20:17:19.279Z,9.43
2023-12-11T20:19:46.625Z,9.00
2023-12-11T20:22:13.499Z,9.37
2023-12-11T20:24:39.978Z,8.47
2023-12-11T20:27:06.539Z,9.00
2023-12-11T20:29:33.051Z,9.50
2023-12-11T20:31:59.480Z,9.57
2023-12-11T20:34:26.000Z,11.00
2023-12-11T20:36:52.564Z,8.07
2023-12-11T20:39:19.020Z,9.80
2023-12-11T20:41:45.530Z,9.10
2023-12-11T20:44:11.991Z,9.90
2023-12-11T20:46:38.504Z,8.43
2023-12-11T20:49:05.306Z,9.40
2023-12-11T20:51:31.821Z,9.30
2023-12-11T20:53:58.310Z,9.70
2023-12-11T20:56:26.465Z,16.73
2023-12-11T20:58:53.876Z,12.20
2023-12-11T21:01:27.530Z,11.90
2023-12-11T21:03:54.812Z,11.10
2023-12-11T21:06:21.776Z,11.00
2023-12-11T21:08:49.349Z,9.13
2023-12-11T21:11:15.829Z,10.43
2023-12-11T21:13:42.369Z,11.17
2023-12-11T21:16:11.702Z,10.30
2023-12-11T21:18:38.788Z,9.03
2023-12-11T21:21:06.132Z,9.40
2023-12-11T21:23:33.442Z,9.20
2023-12-11T21:26:00.366Z,8.30
2023-12-11T21:28:27.004Z,8.37
2023-12-11T21:30:53.730Z,10.13
2023-12-11T21:33:20.334Z,10.33
2023-12-11T21:35:48.001Z,10.90
2023-12-11T21:38:15.742Z,9.90
2023-12-11T21:40:42.314Z,9.40
2023-12-11T21:43:08.806Z,9.70
2023-12-11T21:45:35.471Z,8.77
2023-12-11T21:48:02.066Z,9.47
2023-12-11T21:50:28.579Z,9.83
2023-12-11T21:52:55.061Z,10.00
2023-12-11T21:55:21.595Z,9.37
2023-12-11T21:57:48.154Z,8.20
2023-12-11T22:00:15.286Z,9.70
2023-12-11T22:02:41.797Z,8.23
2023-12-11T22:05:08.790Z,8.63
2023-12-11T22:07:35.709Z,9.07
2023-12-11T22:10:02.537Z,7.97
2023-12-11T22:12:29.054Z,9.13
2023-12-11T22:14:55.481Z,7.90
2023-12-11T22:17:21.994Z,8.50
2023-12-11T22:19:48.548Z,8.30
2023-12-11T22:22:15.098Z,7.63
2023-12-11T22:24:41.569Z,8.50
2023-12-11T22:27:08.048Z,8.47
2023-12-11T22:29:34.551Z,7.87
2023-12-11T22:32:01.042Z,8.67
2023-12-11T22:34:27.591Z,8.37
2023-12-11T22:36:54.195Z,7.67
2023-12-11T22:39:20.693Z,7.57
2023-12-11T22:41:47.134Z,8.03
2023-12-11T22:44:13.618Z,8.97
2023-12-11T22:46:40.137Z,7.47
2023-12-11T22:49:06.696Z,7.00
2023-12-11T22:51:33.270Z,8.00
2023-12-11T22:53:59.783Z,6.80
2023-12-11T22:56:26.227Z,7.93
2023-12-11T22:58:52.730Z,7.37
2023-12-11T23:01:19.479Z,6.37
2023-12-11T23:03:46.089Z,6.80
2023-12-11T23:06:12.955Z,7.23
2023-12-11T23:08:39.484Z,7.90
2023-12-11T23:11:06.065Z,8.50
2023-12-11T23:13:32.598Z,7.23
2023-12-11T23:15:59.135Z,6.20
2023-12-11T23:18:25.824Z,6.80
2023-12-11T23:20:52.327Z,6.50
2023-12-11T23:23:18.797Z,7.40
2023-12-11T23:25:50.549Z,7.70
2023-12-11T23:28:24.918Z,8.23
2023-12-11T23:30:51.475Z,7.77
2023-12-11T23:33:18.025Z,7.13
2023-12-11T23:35:44.556Z,7.77
2023-12-11T23:38:11.068Z,7.60
2023-12-11T23:40:37.605Z,7.17
2023-12-11T23:43:04.191Z,8.53
2023-12-11T23:45:30.704Z,8.07
2023-12-11T23:47:57.277Z,6.87
2023-12-11T23:50:24.052Z,7.57
2023-12-11T23:52:50.660Z,6.77
2023-12-11T23:55:17.132Z,5.90
2023-12-11T23:57:43.604Z,5.87
